Terminal Aerodrome Forecast
Issued by NWS

Home | Current Version | Previous Version | Text Only | Print | Product List | Glossary On
Versions: 1 2 3 4 5 6 7 8 9 10 11 12 13 14 15 16 17 18 19
000
FTUS43 KMQT 031431 AAC
TAFCMX
TAF AMD
KCMX 031431Z 0315/0412 VRB03KT P6SM VCSH SCT025 BKN035
      TEMPO 0315/0317 BKN025
     FM031700 VRB03KT P6SM VCSH OVC020
     FM032100 21003KT P6SM OVC025
     FM040600 18003KT P6SM BKN025
     FM041000 17004KT P6SM BKN035=

USA.gov is the U.S. government's official web portal to all federal, state and local government web resources and services.